sensor_id;sensor_type;location;lat;lon;timestamp;pressure;altitude;pressure_sealevel;temperature;humidity
63556;BME280;49700;48.072;7.800;2023-03-04T00:01:12;100111.84;;;2.52;68.42
63556;BME280;49700;48.072;7.800;2023-03-04T00:03:37;100116.22;;;2.48;68.62
63556;BME280;49700;48.072;7.800;2023-03-04T00:06:03;100119.72;;;2.47;68.63
63556;BME280;49700;48.072;7.800;2023-03-04T00:08:29;100118.81;;;2.48;68.80
63556;BME280;49700;48.072;7.800;2023-03-04T00:10:55;100117.19;;;2.42;68.65
63556;BME280;49700;48.072;7.800;2023-03-04T00:13:20;100125.09;;;2.38;68.77
63556;BME280;49700;48.072;7.800;2023-03-04T00:15:47;100128.78;;;2.28;68.96
63556;BME280;49700;48.072;7.800;2023-03-04T00:18:13;100118.59;;;2.18;69.73
63556;BME280;49700;48.072;7.800;2023-03-04T00:20:38;100126.59;;;2.08;69.89
63556;BME280;49700;48.072;7.800;2023-03-04T00:23:04;100127.53;;;2.04;69.79
63556;BME280;49700;48.072;7.800;2023-03-04T00:25:29;100128.53;;;1.98;70.16
63556;BME280;49700;48.072;7.800;2023-03-04T00:27:55;100126.94;;;1.91;70.11
63556;BME280;49700;48.072;7.800;2023-03-04T00:30:22;100125.25;;;1.88;70.33
63556;BME280;49700;48.072;7.800;2023-03-04T00:32:48;100126.94;;;1.91;70.54
63556;BME280;49700;48.072;7.800;2023-03-04T00:35:14;100128.53;;;1.98;70.61
63556;BME280;49700;48.072;7.800;2023-03-04T00:37:39;100133.56;;;2.04;70.59
63556;BME280;49700;48.072;7.800;2023-03-04T00:40:05;100126.59;;;2.08;70.39
63556;BME280;49700;48.072;7.800;2023-03-04T00:42:30;100141.22;;;2.10;70.25
63556;BME280;49700;48.072;7.800;2023-03-04T00:44:57;100131.72;;;2.11;70.23
63556;BME280;49700;48.072;7.800;2023-03-04T00:47:22;100135.13;;;2.13;70.43
63556;BME280;49700;48.072;7.800;2023-03-04T00:49:47;100137.66;;;2.16;70.29
63556;BME280;49700;48.072;7.800;2023-03-04T00:52:13;100139.53;;;2.09;69.71
63556;BME280;49700;48.072;7.800;2023-03-04T00:54:38;100129.31;;;2.02;70.45
63556;BME280;49700;48.072;7.800;2023-03-04T00:57:04;100128.53;;;1.96;70.34
63556;BME280;49700;48.072;7.800;2023-03-04T00:59:29;100135.50;;;1.94;70.35
63556;BME280;49700;48.072;7.800;2023-03-04T01:01:59;100135.50;;;1.94;70.41
63556;BME280;49700;48.072;7.800;2023-03-04T01:04:30;100132.91;;;1.94;70.53
63556;BME280;49700;48.072;7.800;2023-03-04T01:06:59;100132.09;;;1.92;70.49
63556;BME280;49700;48.072;7.800;2023-03-04T01:09:27;100125.19;;;1.91;70.46
63556;BME280;49700;48.072;7.800;2023-03-04T01:12:05;100127.78;;;1.91;70.40
63556;BME280;49700;48.072;7.800;2023-03-04T01:14:30;100128.59;;;1.93;70.17
63556;BME280;49700;48.072;7.800;2023-03-04T01:16:56;100124.28;;;1.94;70.21
63556;BME280;49700;48.072;7.800;2023-03-04T01:19:21;100121.66;;;1.95;70.12
63556;BME280;49700;48.072;7.800;2023-03-04T01:21:47;100124.25;;;1.95;70.21
63556;BME280;49700;48.072;7.800;2023-03-04T01:24:13;100118.22;;;1.95;70.21
63556;BME280;49700;48.072;7.800;2023-03-04T01:26:39;100119.94;;;1.94;70.03
63556;BME280;49700;48.072;7.800;2023-03-04T01:29:04;100123.44;;;1.93;69.85
63556;BME280;49700;48.072;7.800;2023-03-04T01:31:30;100120.91;;;1.90;69.78
63556;BME280;49700;48.072;7.800;2023-03-04T01:33:55;100117.53;;;1.85;69.98
63556;BME280;49700;48.072;7.800;2023-03-04T01:36:21;100117.75;;;1.76;70.14
63556;BME280;49700;48.072;7.800;2023-03-04T01:38:46;100120.41;;;1.73;70.27
63556;BME280;49700;48.072;7.800;2023-03-04T01:41:13;100111.91;;;1.65;70.16
63556;BME280;49700;48.072;7.800;2023-03-04T01:43:39;100111.16;;;1.60;70.08
63556;BME280;49700;48.072;7.800;2023-03-04T01:46:05;100117.31;;;1.52;70.48
63556;BME280;49700;48.072;7.800;2023-03-04T01:48:34;100115.63;;;1.50;70.24
63556;BME280;49700;48.072;7.800;2023-03-04T01:51:05;100110.50;;;1.47;70.32
63556;BME280;49700;48.072;7.800;2023-03-04T01:53:32;100110.47;;;1.48;70.36
63556;BME280;49700;48.072;7.800;2023-03-04T01:56:23;100101.91;;;1.45;70.22
63556;BME280;49700;48.072;7.800;2023-03-04T01:59:13;100109.81;;;1.39;70.46
63556;BME280;49700;48.072;7.800;2023-03-04T02:01:41;100106.38;;;1.38;70.51
63556;BME280;49700;48.072;7.800;2023-03-04T02:04:07;100105.53;;;1.36;70.57
63556;BME280;49700;48.072;7.800;2023-03-04T02:06:36;100106.47;;;1.32;70.51
63556;BME280;49700;48.072;7.800;2023-03-04T02:09:03;100104.94;;;1.22;70.54
63556;BME280;49700;48.072;7.800;2023-03-04T02:11:29;100101.63;;;1.12;70.53
63556;BME280;49700;48.072;7.800;2023-03-04T02:13:55;100102.63;;;1.05;70.87
63556;BME280;49700;48.072;7.800;2023-03-04T02:16:21;100102.72;;;1.00;70.68
63556;BME280;49700;48.072;7.800;2023-03-04T02:18:46;100102.72;;;0.97;71.02
63556;BME280;49700;48.072;7.800;2023-03-04T02:21:26;100100.16;;;0.97;70.72
63556;BME280;49700;48.072;7.800;2023-03-04T02:24:11;100100.19;;;0.94;70.84
63556;BME280;49700;48.072;7.800;2023-03-04T02:26:48;100108.84;;;0.93;70.60
63556;BME280;49700;48.072;7.800;2023-03-04T02:29:21;100100.25;;;0.93;70.75
63556;BME280;49700;48.072;7.800;2023-03-04T02:31:57;100102.78;;;0.94;70.82
63556;BME280;49700;48.072;7.800;2023-03-04T02:34:33;100104.47;;;0.98;70.67
63556;BME280;49700;48.072;7.800;2023-03-04T02:37:19;100104.47;;;0.98;70.36
63556;BME280;49700;48.072;7.800;2023-03-04T02:40:00;100101.97;;;0.92;70.39
63556;BME280;49700;48.072;7.800;2023-03-04T02:42:32;100104.59;;;0.89;70.91
63556;BME280;49700;48.072;7.800;2023-03-04T02:44:59;100104.56;;;0.92;70.93
63556;BME280;49700;48.072;7.800;2023-03-04T02:47:38;100108.00;;;0.93;70.55
63556;BME280;49700;48.072;7.800;2023-03-04T02:50:14;100107.16;;;0.91;71.01
63556;BME280;49700;48.072;7.800;2023-03-04T02:52:58;100104.66;;;0.86;70.87
63556;BME280;49700;48.072;7.800;2023-03-04T02:55:37;100113.28;;;0.85;70.97
63556;BME280;49700;48.072;7.800;2023-03-04T02:58:07;100107.22;;;0.86;70.88
63556;BME280;49700;48.072;7.800;2023-03-04T03:00:35;100104.66;;;0.86;70.79
63556;BME280;49700;48.072;7.800;2023-03-04T03:03:01;100102.97;;;0.83;70.93
63556;BME280;49700;48.072;7.800;2023-03-04T03:05:29;100103.81;;;0.85;71.02
63556;BME280;49700;48.072;7.800;2023-03-04T03:07:58;100108.97;;;0.87;71.48
63556;BME280;49700;48.072;7.800;2023-03-04T03:10:24;100096.00;;;0.88;71.44
63556;BME280;49700;48.072;7.800;2023-03-04T03:12:53;100099.41;;;0.91;71.23
63556;BME280;49700;48.072;7.800;2023-03-04T03:15:19;100105.44;;;0.91;70.90
63556;BME280;49700;48.072;7.800;2023-03-04T03:17:46;100110.59;;;0.91;71.14
63556;BME280;49700;48.072;7.800;2023-03-04T03:20:13;100102.84;;;0.91;70.86
63556;BME280;49700;48.072;7.800;2023-03-04T03:22:42;100108.91;;;0.90;70.84
63556;BME280;49700;48.072;7.800;2023-03-04T03:25:11;100102.00;;;0.91;70.71
63556;BME280;49700;48.072;7.800;2023-03-04T03:27:37;100103.72;;;0.90;70.64
63556;BME280;49700;48.072;7.800;2023-03-04T03:30:04;100103.69;;;0.92;70.74
63556;BME280;49700;48.072;7.800;2023-03-04T03:32:30;100100.31;;;0.90;70.77
63556;BME280;49700;48.072;7.800;2023-03-04T03:34:58;100096.94;;;0.84;70.43
63556;BME280;49700;48.072;7.800;2023-03-04T03:37:23;100106.56;;;0.75;70.70
63556;BME280;49700;48.072;7.800;2023-03-04T03:39:51;100113.63;;;0.65;70.52
63556;BME280;49700;48.072;7.800;2023-03-04T03:42:17;100109.38;;;0.59;71.07
63556;BME280;49700;48.072;7.800;2023-03-04T03:44:43;100109.38;;;0.59;70.89
63556;BME280;49700;48.072;7.800;2023-03-04T03:47:10;100105.09;;;0.58;70.83
63556;BME280;49700;48.072;7.800;2023-03-04T03:49:41;100105.97;;;0.57;70.90
63556;BME280;49700;48.072;7.800;2023-03-04T03:52:14;100106.81;;;0.56;71.06
63556;BME280;49700;48.072;7.800;2023-03-04T03:54:40;100116.34;;;0.54;70.84
63556;BME280;49700;48.072;7.800;2023-03-04T03:57:08;100117.25;;;0.50;70.82
63556;BME280;49700;48.072;7.800;2023-03-04T03:59:33;100119.06;;;0.45;70.84
63556;BME280;49700;48.072;7.800;2023-03-04T04:01:59;100113.94;;;0.42;71.03
63556;BME280;49700;48.072;7.800;2023-03-04T04:04:24;100116.56;;;0.39;71.15
63556;BME280;49700;48.072;7.800;2023-03-04T04:06:53;100119.16;;;0.37;71.29
63556;BME280;49700;48.072;7.800;2023-03-04T04:09:20;100123.47;;;0.38;71.12
63556;BME280;49700;48.072;7.800;2023-03-04T04:11:56;100122.63;;;0.38;71.18
63556;BME280;49700;48.072;7.800;2023-03-04T04:14:21;100129.53;;;0.36;70.95
63556;BME280;49700;48.072;7.800;2023-03-04T04:16:51;100129.53;;;0.36;71.48
63556;BME280;49700;48.072;7.800;2023-03-04T04:19:22;100122.69;;;0.32;70.88
63556;BME280;49700;48.072;7.800;2023-03-04T04:21:48;100132.19;;;0.30;70.94
63556;BME280;49700;48.072;7.800;2023-03-04T04:24:14;100121.88;;;0.27;71.06
63556;BME280;49700;48.072;7.800;2023-03-04T04:26:40;100122.78;;;0.27;71.29
63556;BME280;49700;48.072;7.800;2023-03-04T04:29:06;100126.19;;;0.28;71.11
63556;BME280;49700;48.072;7.800;2023-03-04T04:31:39;100120.19;;;0.26;70.88
63556;BME280;49700;48.072;7.800;2023-03-04T04:34:09;100118.50;;;0.25;70.94
63556;BME280;49700;48.072;7.800;2023-03-04T04:36:35;100122.78;;;0.24;71.01
63556;BME280;49700;48.072;7.800;2023-03-04T04:39:04;100125.34;;;0.27;70.77
63556;BME280;49700;48.072;7.800;2023-03-04T04:41:35;100124.47;;;0.28;70.84
63556;BME280;49700;48.072;7.800;2023-03-04T04:44:01;100121.03;;;0.26;70.80
63556;BME280;49700;48.072;7.800;2023-03-04T04:46:26;100127.09;;;0.25;70.84
63556;BME280;49700;48.072;7.800;2023-03-04T04:49:02;100129.63;;;0.27;70.57
63556;BME280;49700;48.072;7.800;2023-03-04T04:51:28;100131.38;;;0.26;70.62
63556;BME280;49700;48.072;7.800;2023-03-04T04:54:00;100127.94;;;0.26;70.54
63556;BME280;49700;48.072;7.800;2023-03-04T04:56:36;100124.53;;;0.24;70.52
63556;BME280;49700;48.072;7.800;2023-03-04T04:59:04;100132.41;;;0.14;70.36
63556;BME280;49700;48.072;7.800;2023-03-04T05:01:31;100130.81;;;0.03;70.56
63556;BME280;49700;48.072;7.800;2023-03-04T05:07:21;100136.09;;;-0.07;70.93
63556;BME280;49700;48.072;7.800;2023-03-04T05:09:49;100134.41;;;-0.09;70.96
63556;BME280;49700;48.072;7.800;2023-03-04T05:12:18;100134.47;;;-0.17;70.90
63556;BME280;49700;48.072;7.800;2023-03-04T05:14:43;100138.91;;;-0.27;71.13
63556;BME280;49700;48.072;7.800;2023-03-04T05:17:11;100140.72;;;-0.35;70.91
63556;BME280;49700;48.072;7.800;2023-03-04T05:19:39;100135.63;;;-0.44;71.33
63556;BME280;49700;48.072;7.800;2023-03-04T05:22:05;100137.41;;;-0.49;71.39
63556;BME280;49700;48.072;7.800;2023-03-04T05:24:31;100131.47;;;-0.57;71.19
63556;BME280;49700;48.072;7.800;2023-03-04T05:26:59;100140.13;;;-0.61;71.57
63556;BME280;49700;48.072;7.800;2023-03-04T05:29:28;100141.00;;;-0.65;71.58
63556;BME280;49700;48.072;7.800;2023-03-04T05:31:53;100142.78;;;-0.69;71.36
63556;BME280;49700;48.072;7.800;2023-03-04T05:34:19;100141.88;;;-0.68;71.48
63556;BME280;49700;48.072;7.800;2023-03-04T05:36:45;100143.66;;;-0.70;71.33
63556;BME280;49700;48.072;7.800;2023-03-04T05:39:19;100147.06;;;-0.70;71.75
63556;BME280;49700;48.072;7.800;2023-03-04T05:41:45;100146.16;;;-0.65;71.43
63556;BME280;49700;48.072;7.800;2023-03-04T05:44:11;100147.91;;;-0.64;71.40
63556;BME280;49700;48.072;7.800;2023-03-04T05:46:36;100149.63;;;-0.67;71.22
63556;BME280;49700;48.072;7.800;2023-03-04T05:49:02;100156.53;;;-0.70;71.17
63556;BME280;49700;48.072;7.800;2023-03-04T05:51:27;100152.25;;;-0.70;71.17
63556;BME280;49700;48.072;7.800;2023-03-04T05:53:53;100150.50;;;-0.69;71.48
63556;BME280;49700;48.072;7.800;2023-03-04T05:56:27;100149.63;;;-0.67;71.14
63556;BME280;49700;48.072;7.800;2023-03-04T05:58:58;100146.16;;;-0.64;71.21
63556;BME280;49700;48.072;7.800;2023-03-04T06:01:30;100148.72;;;-0.62;71.01
63556;BME280;49700;48.072;7.800;2023-03-04T06:04:17;100145.28;;;-0.61;71.01
63556;BME280;49700;48.072;7.800;2023-03-04T06:07:12;100147.84;;;-0.60;71.15
63556;BME280;49700;48.072;7.800;2023-03-04T06:09:40;100146.09;;;-0.56;71.35
63556;BME280;49700;48.072;7.800;2023-03-04T06:12:18;100154.63;;;-0.48;71.08
63556;BME280;49700;48.072;7.800;2023-03-04T06:14:54;100156.25;;;-0.41;71.05
63556;BME280;49700;48.072;7.800;2023-03-04T06:17:31;100160.50;;;-0.35;70.53
63556;BME280;49700;48.072;7.800;2023-03-04T06:20:15;100163.06;;;-0.34;70.50
63556;BME280;49700;48.072;7.800;2023-03-04T06:22:44;100168.22;;;-0.34;70.37
63556;BME280;49700;48.072;7.800;2023-03-04T06:25:14;100173.41;;;-0.35;70.42
63556;BME280;49700;48.072;7.800;2023-03-04T06:27:49;100180.28;;;-0.34;70.64
63556;BME280;49700;48.072;7.800;2023-03-04T06:30:34;100180.25;;;-0.33;70.56
63556;BME280;49700;48.072;7.800;2023-03-04T06:33:12;100176.81;;;-0.32;70.75
63556;BME280;49700;48.072;7.800;2023-03-04T06:35:38;100184.53;;;-0.29;70.43
63556;BME280;49700;48.072;7.800;2023-03-04T06:38:06;100182.78;;;-0.27;70.44
63556;BME280;49700;48.072;7.800;2023-03-04T06:40:51;100185.31;;;-0.20;70.35
63556;BME280;49700;48.072;7.800;2023-03-04T06:43:32;100179.22;;;-0.16;70.41
63556;BME280;49700;48.072;7.800;2023-03-04T06:46:25;100184.38;;;-0.13;70.06
63556;BME280;49700;48.072;7.800;2023-03-04T06:49:21;100188.59;;;-0.06;70.12
63556;BME280;49700;48.072;7.800;2023-03-04T06:52:01;100188.53;;;-0.03;69.78
63556;BME280;49700;48.072;7.800;2023-03-04T06:54:52;100186.81;;;-0.01;69.81
63556;BME280;49700;48.072;7.800;2023-03-04T06:57:38;100189.38;;;0.01;69.93
63556;BME280;49700;48.072;7.800;2023-03-04T07:00:14;100191.06;;;0.05;70.19
63556;BME280;49700;48.072;7.800;2023-03-04T07:02:50;100199.56;;;0.13;69.94
63556;BME280;49700;48.072;7.800;2023-03-04T07:05:18;100211.53;;;0.20;69.58
63556;BME280;49700;48.072;7.800;2023-03-04T07:07:44;100212.31;;;0.28;69.50
63556;BME280;49700;48.072;7.800;2023-03-04T07:10:37;100209.59;;;0.37;69.44
63556;BME280;49700;48.072;7.800;2023-03-04T07:13:12;100218.16;;;0.44;69.11
63556;BME280;49700;48.072;7.800;2023-03-04T07:16:14;100213.69;;;0.55;69.09
63556;BME280;49700;48.072;7.800;2023-03-04T07:18:42;100213.66;;;0.60;69.14
63556;BME280;49700;48.072;7.800;2023-03-04T07:21:21;100212.66;;;0.67;68.84
63556;BME280;49700;48.072;7.800;2023-03-04T07:23:47;100215.16;;;0.75;68.87
63556;BME280;49700;48.072;7.800;2023-03-04T07:26:31;100218.38;;;0.91;68.76
63556;BME280;49700;48.072;7.800;2023-03-04T07:29:14;100221.66;;;1.02;68.41
63556;BME280;49700;48.072;7.800;2023-03-04T07:31:47;100220.72;;;1.09;68.28
63556;BME280;49700;48.072;7.800;2023-03-04T07:34:32;100223.22;;;1.14;68.17
63556;BME280;49700;48.072;7.800;2023-03-04T07:37:06;100231.78;;;1.17;68.30
63556;BME280;49700;48.072;7.800;2023-03-04T07:39:42;100233.47;;;1.20;68.36
63556;BME280;49700;48.072;7.800;2023-03-04T07:42:10;100231.69;;;1.23;68.42
63556;BME280;49700;48.072;7.800;2023-03-04T07:44:51;100229.88;;;1.30;68.13
63556;BME280;49700;48.072;7.800;2023-03-04T07:47:50;100226.34;;;1.34;68.60
63556;BME280;49700;48.072;7.800;2023-03-04T07:50:16;100230.50;;;1.44;68.30
63556;BME280;49700;48.072;7.800;2023-03-04T07:52:57;100230.34;;;1.53;68.42
63556;BME280;49700;48.072;7.800;2023-03-04T07:55:25;100228.47;;;1.62;68.37
63556;BME280;49700;48.072;7.800;2023-03-04T07:57:58;100237.00;;;1.68;68.19
63556;BME280;49700;48.072;7.800;2023-03-04T08:00:37;100240.38;;;1.73;68.03
63556;BME280;49700;48.072;7.800;2023-03-04T08:03:24;100237.69;;;1.78;68.45
63556;BME280;49700;48.072;7.800;2023-03-04T08:06:08;100242.00;;;1.77;68.52
63556;BME280;49700;48.072;7.800;2023-03-04T08:08:37;100238.56;;;1.77;68.84
63556;BME280;49700;48.072;7.800;2023-03-04T08:11:29;100242.91;;;1.75;69.62
63556;BME280;49700;48.072;7.800;2023-03-04T08:14:14;100254.25;;;1.69;69.55
63556;BME280;49700;48.072;7.800;2023-03-04T08:17:04;100243.88;;;1.71;70.28
63556;BME280;49700;48.072;7.800;2023-03-04T08:23:49;100237.78;;;1.72;70.44
63556;BME280;49700;48.072;7.800;2023-03-04T08:26:47;100243.81;;;1.72;70.73
63556;BME280;49700;48.072;7.800;2023-03-04T08:29:38;100241.16;;;1.77;70.80
63556;BME280;49700;48.072;7.800;2023-03-04T08:32:27;100247.19;;;1.79;70.82
63556;BME280;49700;48.072;7.800;2023-03-04T08:35:10;100240.16;;;1.86;71.00
63556;BME280;49700;48.072;7.800;2023-03-04T08:37:51;100244.41;;;1.90;70.47
63556;BME280;49700;48.072;7.800;2023-03-04T08:40:37;100242.53;;;1.96;70.69
63556;BME280;49700;48.072;7.800;2023-03-04T08:43:08;100252.81;;;2.03;70.87
63556;BME280;49700;48.072;7.800;2023-03-04T08:46:04;100253.56;;;2.08;70.14
63556;BME280;49700;48.072;7.800;2023-03-04T08:48:50;100255.25;;;2.10;70.33
63556;BME280;49700;48.072;7.800;2023-03-04T08:51:29;100256.13;;;2.11;70.36
63556;BME280;49700;48.072;7.800;2023-03-04T08:54:28;100251.72;;;2.14;70.52
63556;BME280;49700;48.072;7.800;2023-03-04T08:57:00;100254.25;;;2.19;70.38
63556;BME280;49700;48.072;7.800;2023-03-04T09:02:58;100272.38;;;2.17;70.40
63556;BME280;49700;48.072;7.800;2023-03-04T09:05:38;100269.03;;;2.12;70.23
63556;BME280;49700;48.072;7.800;2023-03-04T09:08:37;100267.34;;;2.10;71.07
63556;BME280;49700;48.072;7.800;2023-03-04T09:11:39;100268.16;;;2.13;70.74
63556;BME280;49700;48.072;7.800;2023-03-04T09:14:20;100271.59;;;2.14;70.57
63556;BME280;49700;48.072;7.800;2023-03-04T09:17:22;100272.44;;;2.14;70.37
63556;BME280;49700;48.072;7.800;2023-03-04T09:23:30;100269.00;;;2.14;70.13
63556;BME280;49700;48.072;7.800;2023-03-04T09:30:04;100268.03;;;2.19;70.42
63556;BME280;49700;48.072;7.800;2023-03-04T09:32:53;100267.13;;;2.22;70.23
63556;BME280;49700;48.072;7.800;2023-03-04T09:35:40;100263.66;;;2.23;70.52
63556;BME280;49700;48.072;7.800;2023-03-04T09:38:16;100264.47;;;2.25;70.35
63556;BME280;49700;48.072;7.800;2023-03-04T09:41:40;100263.69;;;2.21;70.62
63556;BME280;49700;48.072;7.800;2023-03-04T09:44:51;100265.31;;;2.27;70.41
63556;BME280;49700;48.072;7.800;2023-03-04T09:48:04;100272.00;;;2.37;70.37
63556;BME280;49700;48.072;7.800;2023-03-04T09:51:19;100256.22;;;2.50;69.99
63556;BME280;49700;48.072;7.800;2023-03-04T09:56:50;100261.06;;;2.66;69.80
63556;BME280;49700;48.072;7.800;2023-03-04T09:59:46;100265.25;;;2.72;69.44
63556;BME280;49700;48.072;7.800;2023-03-04T10:02:39;100267.69;;;2.80;69.51
63556;BME280;49700;48.072;7.800;2023-03-04T10:05:32;100264.03;;;2.88;69.41
63556;BME280;49700;48.072;7.800;2023-03-04T10:08:32;100266.63;;;2.90;69.50
63556;BME280;49700;48.072;7.800;2023-03-04T10:11:50;100261.44;;;2.88;69.17
63556;BME280;49700;48.072;7.800;2023-03-04T10:14:42;100264.03;;;2.90;68.94
63556;BME280;49700;48.072;7.800;2023-03-04T10:23:58;100254.31;;;2.98;68.39
63556;BME280;49700;48.072;7.800;2023-03-04T10:29:49;100259.34;;;3.06;68.82
63556;BME280;49700;48.072;7.800;2023-03-04T10:32:19;100261.78;;;3.14;68.39
63556;BME280;49700;48.072;7.800;2023-03-04T10:34:45;100251.44;;;3.10;68.11
63556;BME280;49700;48.072;7.800;2023-03-04T10:37:10;100257.44;;;3.14;68.53
63556;BME280;49700;48.072;7.800;2023-03-04T10:39:39;100254.84;;;3.13;68.77
63556;BME280;49700;48.072;7.800;2023-03-04T10:42:22;100254.91;;;3.11;68.58
63556;BME280;49700;48.072;7.800;2023-03-04T10:47:18;100247.75;;;3.21;68.96
63556;BME280;49700;48.072;7.800;2023-03-04T10:49:54;100248.75;;;3.15;68.70
63556;BME280;49700;48.072;7.800;2023-03-04T10:52:46;100243.56;;;3.15;68.65
63556;BME280;49700;48.072;7.800;2023-03-04T10:55:21;100245.13;;;3.22;68.53
63556;BME280;49700;48.072;7.800;2023-03-04T10:57:51;100241.56;;;3.26;68.62
63556;BME280;49700;48.072;7.800;2023-03-04T11:00:30;100238.69;;;3.39;68.28
63556;BME280;49700;48.072;7.800;2023-03-04T11:05:47;100241.03;;;3.48;68.24
63556;BME280;49700;48.072;7.800;2023-03-04T11:08:18;100235.06;;;3.46;68.54
63556;BME280;49700;48.072;7.800;2023-03-04T11:10:44;100231.38;;;3.54;68.49
63556;BME280;49700;48.072;7.800;2023-03-04T11:13:17;100226.88;;;3.61;68.08
63556;BME280;49700;48.072;7.800;2023-03-04T11:18:26;100231.03;;;3.68;67.70
63556;BME280;49700;48.072;7.800;2023-03-04T11:20:55;100231.13;;;3.64;67.79
63556;BME280;49700;48.072;7.800;2023-03-04T11:26:07;100221.25;;;3.78;67.25
63556;BME280;49700;48.072;7.800;2023-03-04T11:28:57;100217.50;;;3.88;67.33
63556;BME280;49700;48.072;7.800;2023-03-04T11:34:23;100209.88;;;4.15;66.53
63556;BME280;49700;48.072;7.800;2023-03-04T11:36:56;100202.41;;;4.34;66.27
63556;BME280;49700;48.072;7.800;2023-03-04T11:39:51;100193.16;;;4.53;65.88
63556;BME280;49700;48.072;7.800;2023-03-04T11:42:48;100185.09;;;4.62;65.20
63556;BME280;49700;48.072;7.800;2023-03-04T11:48:31;100179.84;;;4.64;65.18
63556;BME280;49700;48.072;7.800;2023-03-04T11:54:11;100162.84;;;4.80;64.92
63556;BME280;49700;48.072;7.800;2023-03-04T11:56:52;100151.66;;;4.78;65.02
63556;BME280;49700;48.072;7.800;2023-03-04T11:59:49;100153.00;;;4.90;64.71
63556;BME280;49700;48.072;7.800;2023-03-04T12:02:19;100152.81;;;4.96;64.64
63556;BME280;49700;48.072;7.800;2023-03-04T12:08:07;100141.91;;;5.12;64.27
63556;BME280;49700;48.072;7.800;2023-03-04T12:13:50;100131.03;;;5.25;64.05
63556;BME280;49700;48.072;7.800;2023-03-04T12:19:40;100115.03;;;5.36;64.12
63556;BME280;49700;48.072;7.800;2023-03-04T12:22:21;100105.09;;;5.47;64.01
63556;BME280;49700;48.072;7.800;2023-03-04T12:33:22;100086.38;;;5.86;63.14
63556;BME280;49700;48.072;7.800;2023-03-04T12:35:52;100087.94;;;5.90;62.68
63556;BME280;49700;48.072;7.800;2023-03-04T12:43:46;100068.38;;;6.26;62.41
63556;BME280;49700;48.072;7.800;2023-03-04T12:54:31;100052.41;;;6.77;61.34
63556;BME280;49700;48.072;7.800;2023-03-04T12:57:00;100048.66;;;6.84;60.70
63556;BME280;49700;48.072;7.800;2023-03-04T12:59:32;100050.03;;;6.93;60.12
63556;BME280;49700;48.072;7.800;2023-03-04T13:02:23;100043.38;;;7.06;58.90
63556;BME280;49700;48.072;7.800;2023-03-04T13:04:59;100046.84;;;7.27;58.27
